sensor_id;sensor_type;location;lat;lon;timestamp;temperature;humidity
59007;DHT22;44792;52.760;6.726;2023-05-18T00:02:06;8.10;99.90
59007;DHT22;44792;52.760;6.726;2023-05-18T00:04:33;8.00;99.90
59007;DHT22;44792;52.760;6.726;2023-05-18T00:07:00;8.00;99.90
59007;DHT22;44792;52.760;6.726;2023-05-18T00:09:36;8.00;99.90
59007;DHT22;44792;52.760;6.726;2023-05-18T00:12:03;7.90;99.90
59007;DHT22;44792;52.760;6.726;2023-05-18T00:14:29;7.90;99.90
59007;DHT22;44792;52.760;6.726;2023-05-18T00:16:56;7.90;99.90
59007;DHT22;44792;52.760;6.726;2023-05-18T00:19:22;7.90;99.90
59007;DHT22;44792;52.760;6.726;2023-05-18T00:21:50;7.80;99.90
59007;DHT22;44792;52.760;6.726;2023-05-18T00:24:16;7.90;99.90
59007;DHT22;44792;52.760;6.726;2023-05-18T00:26:46;7.80;99.90
59007;DHT22;44792;52.760;6.726;2023-05-18T00:29:12;7.80;99.90
59007;DHT22;44792;52.760;6.726;2023-05-18T00:31:38;7.80;99.90
59007;DHT22;44792;52.760;6.726;2023-05-18T00:34:08;7.70;99.90
59007;DHT22;44792;52.760;6.726;2023-05-18T00:36:34;7.70;99.90
59007;DHT22;44792;52.760;6.726;2023-05-18T00:39:01;7.70;99.90
59007;DHT22;44792;52.760;6.726;2023-05-18T00:41:27;7.70;99.90
59007;DHT22;44792;52.760;6.726;2023-05-18T00:43:54;7.60;99.90
59007;DHT22;44792;52.760;6.726;2023-05-18T00:46:21;7.70;99.90
59007;DHT22;44792;52.760;6.726;2023-05-18T00:48:48;7.60;99.90
59007;DHT22;44792;52.760;6.726;2023-05-18T00:51:15;7.50;99.90
59007;DHT22;44792;52.760;6.726;2023-05-18T00:53:41;7.50;99.90
59007;DHT22;44792;52.760;6.726;2023-05-18T00:56:09;7.50;99.90
59007;DHT22;44792;52.760;6.726;2023-05-18T00:58:35;7.40;99.90
59007;DHT22;44792;52.760;6.726;2023-05-18T01:01:02;7.50;99.90
59007;DHT22;44792;52.760;6.726;2023-05-18T01:03:32;7.40;99.90
59007;DHT22;44792;52.760;6.726;2023-05-18T01:05:57;7.40;99.90
59007;DHT22;44792;52.760;6.726;2023-05-18T01:08:24;7.40;99.90
59007;DHT22;44792;52.760;6.726;2023-05-18T01:10:54;7.40;99.90
59007;DHT22;44792;52.760;6.726;2023-05-18T01:13:33;7.40;99.90
59007;DHT22;44792;52.760;6.726;2023-05-18T01:16:05;7.30;99.90
59007;DHT22;44792;52.760;6.726;2023-05-18T01:18:39;7.30;99.90
59007;DHT22;44792;52.760;6.726;2023-05-18T01:24:04;7.20;99.90
59007;DHT22;44792;52.760;6.726;2023-05-18T01:26:34;7.20;99.90
59007;DHT22;44792;52.760;6.726;2023-05-18T01:29:08;7.20;99.90
59007;DHT22;44792;52.760;6.726;2023-05-18T01:31:36;7.20;99.90
59007;DHT22;44792;52.760;6.726;2023-05-18T01:34:01;7.20;99.90
59007;DHT22;44792;52.760;6.726;2023-05-18T01:36:27;7.10;99.90
59007;DHT22;44792;52.760;6.726;2023-05-18T01:38:53;7.10;99.90
59007;DHT22;44792;52.760;6.726;2023-05-18T01:41:25;7.10;99.90
59007;DHT22;44792;52.760;6.726;2023-05-18T01:46:39;7.00;99.90
59007;DHT22;44792;52.760;6.726;2023-05-18T01:49:16;7.00;99.90
59007;DHT22;44792;52.760;6.726;2023-05-18T01:51:45;7.00;99.90
59007;DHT22;44792;52.760;6.726;2023-05-18T01:54:14;7.00;99.90
59007;DHT22;44792;52.760;6.726;2023-05-18T01:56:41;6.90;99.90
59007;DHT22;44792;52.760;6.726;2023-05-18T01:59:09;6.90;99.90
59007;DHT22;44792;52.760;6.726;2023-05-18T02:01:35;6.90;99.90
59007;DHT22;44792;52.760;6.726;2023-05-18T02:04:01;6.90;99.90
59007;DHT22;44792;52.760;6.726;2023-05-18T02:06:26;6.90;99.90
59007;DHT22;44792;52.760;6.726;2023-05-18T02:08:52;6.90;99.90
59007;DHT22;44792;52.760;6.726;2023-05-18T02:11:18;6.80;99.90
59007;DHT22;44792;52.760;6.726;2023-05-18T02:13:44;6.80;99.90
59007;DHT22;44792;52.760;6.726;2023-05-18T02:16:09;6.80;99.90
59007;DHT22;44792;52.760;6.726;2023-05-18T02:18:36;6.90;99.90
59007;DHT22;44792;52.760;6.726;2023-05-18T02:21:03;6.90;99.90
59007;DHT22;44792;52.760;6.726;2023-05-18T02:23:29;6.90;99.90
59007;DHT22;44792;52.760;6.726;2023-05-18T02:25:55;6.90;99.90
59007;DHT22;44792;52.760;6.726;2023-05-18T02:28:21;6.90;99.90
59007;DHT22;44792;52.760;6.726;2023-05-18T02:30:47;7.00;99.90
59007;DHT22;44792;52.760;6.726;2023-05-18T02:33:13;6.90;99.90
59007;DHT22;44792;52.760;6.726;2023-05-18T02:35:39;6.90;99.90
59007;DHT22;44792;52.760;6.726;2023-05-18T02:38:05;6.90;99.90
59007;DHT22;44792;52.760;6.726;2023-05-18T02:40:32;6.90;99.90
59007;DHT22;44792;52.760;6.726;2023-05-18T02:42:57;7.00;99.90
59007;DHT22;44792;52.760;6.726;2023-05-18T02:45:23;6.90;99.90
59007;DHT22;44792;52.760;6.726;2023-05-18T02:47:49;6.90;99.90
59007;DHT22;44792;52.760;6.726;2023-05-18T02:50:15;6.90;99.90
59007;DHT22;44792;52.760;6.726;2023-05-18T02:52:41;6.90;99.90
59007;DHT22;44792;52.760;6.726;2023-05-18T02:55:06;6.90;99.90
59007;DHT22;44792;52.760;6.726;2023-05-18T02:57:32;6.90;99.90
59007;DHT22;44792;52.760;6.726;2023-05-18T02:59:58;6.80;99.90
59007;DHT22;44792;52.760;6.726;2023-05-18T03:02:24;6.80;99.90
59007;DHT22;44792;52.760;6.726;2023-05-18T03:04:52;6.80;99.90
59007;DHT22;44792;52.760;6.726;2023-05-18T03:07:22;6.80;99.90
59007;DHT22;44792;52.760;6.726;2023-05-18T03:09:47;6.80;99.90
59007;DHT22;44792;52.760;6.726;2023-05-18T03:12:13;6.70;99.90
59007;DHT22;44792;52.760;6.726;2023-05-18T03:14:39;6.70;99.90
59007;DHT22;44792;52.760;6.726;2023-05-18T03:17:05;6.70;99.90
59007;DHT22;44792;52.760;6.726;2023-05-18T03:19:33;6.70;99.90
59007;DHT22;44792;52.760;6.726;2023-05-18T03:21:59;6.70;99.90
59007;DHT22;44792;52.760;6.726;2023-05-18T03:24:25;6.70;99.90
59007;DHT22;44792;52.760;6.726;2023-05-18T03:26:55;6.60;99.90
59007;DHT22;44792;52.760;6.726;2023-05-18T03:29:21;6.70;99.90
59007;DHT22;44792;52.760;6.726;2023-05-18T03:31:47;6.60;99.90
59007;DHT22;44792;52.760;6.726;2023-05-18T03:34:13;6.60;99.90
59007;DHT22;44792;52.760;6.726;2023-05-18T03:36:40;6.70;99.90
59007;DHT22;44792;52.760;6.726;2023-05-18T03:39:07;6.60;99.90
59007;DHT22;44792;52.760;6.726;2023-05-18T03:41:33;6.60;99.90
59007;DHT22;44792;52.760;6.726;2023-05-18T03:43:59;6.60;99.90
59007;DHT22;44792;52.760;6.726;2023-05-18T03:46:24;6.60;99.90
59007;DHT22;44792;52.760;6.726;2023-05-18T03:48:51;6.60;99.90
59007;DHT22;44792;52.760;6.726;2023-05-18T03:51:19;6.60;99.90
59007;DHT22;44792;52.760;6.726;2023-05-18T03:53:45;6.60;99.90
59007;DHT22;44792;52.760;6.726;2023-05-18T03:56:11;6.60;99.90
59007;DHT22;44792;52.760;6.726;2023-05-18T03:58:38;6.60;99.90
59007;DHT22;44792;52.760;6.726;2023-05-18T04:01:04;6.60;99.90
59007;DHT22;44792;52.760;6.726;2023-05-18T04:03:30;6.60;99.90
59007;DHT22;44792;52.760;6.726;2023-05-18T04:05:55;6.60;99.90
59007;DHT22;44792;52.760;6.726;2023-05-18T04:08:21;6.60;99.90
59007;DHT22;44792;52.760;6.726;2023-05-18T04:10:50;6.60;99.90
59007;DHT22;44792;52.760;6.726;2023-05-18T04:13:16;6.70;99.90
59007;DHT22;44792;52.760;6.726;2023-05-18T04:15:42;6.60;99.90
59007;DHT22;44792;52.760;6.726;2023-05-18T04:18:08;6.70;99.90
59007;DHT22;44792;52.760;6.726;2023-05-18T04:20:35;6.70;99.90
59007;DHT22;44792;52.760;6.726;2023-05-18T04:23:02;6.60;99.90
59007;DHT22;44792;52.760;6.726;2023-05-18T04:25:30;6.80;99.90
59007;DHT22;44792;52.760;6.726;2023-05-18T04:27:56;6.80;99.90
59007;DHT22;44792;52.760;6.726;2023-05-18T04:30:22;6.70;99.90
59007;DHT22;44792;52.760;6.726;2023-05-18T04:32:48;6.90;99.90
59007;DHT22;44792;52.760;6.726;2023-05-18T04:35:15;6.90;99.90
59007;DHT22;44792;52.760;6.726;2023-05-18T04:37:41;7.00;99.90
59007;DHT22;44792;52.760;6.726;2023-05-18T04:40:10;7.00;99.90
59007;DHT22;44792;52.760;6.726;2023-05-18T04:42:41;7.00;99.90
59007;DHT22;44792;52.760;6.726;2023-05-18T04:45:13;7.10;99.90
59007;DHT22;44792;52.760;6.726;2023-05-18T04:47:40;7.20;99.90
59007;DHT22;44792;52.760;6.726;2023-05-18T04:50:06;7.30;99.90
59007;DHT22;44792;52.760;6.726;2023-05-18T04:52:32;7.30;99.90
59007;DHT22;44792;52.760;6.726;2023-05-18T04:55:01;7.30;99.90
59007;DHT22;44792;52.760;6.726;2023-05-18T04:57:27;7.40;99.90
59007;DHT22;44792;52.760;6.726;2023-05-18T04:59:53;7.40;99.90
59007;DHT22;44792;52.760;6.726;2023-05-18T05:02:19;7.50;99.90
59007;DHT22;44792;52.760;6.726;2023-05-18T05:04:45;7.60;99.90
59007;DHT22;44792;52.760;6.726;2023-05-18T05:07:11;7.70;99.90
59007;DHT22;44792;52.760;6.726;2023-05-18T05:09:36;7.70;99.90
59007;DHT22;44792;52.760;6.726;2023-05-18T05:12:02;7.80;99.90
59007;DHT22;44792;52.760;6.726;2023-05-18T05:14:28;7.90;99.90
59007;DHT22;44792;52.760;6.726;2023-05-18T05:16:54;8.10;99.90
59007;DHT22;44792;52.760;6.726;2023-05-18T05:19:19;8.30;99.90
59007;DHT22;44792;52.760;6.726;2023-05-18T05:21:45;8.30;99.90
59007;DHT22;44792;52.760;6.726;2023-05-18T05:24:11;8.50;99.90
59007;DHT22;44792;52.760;6.726;2023-05-18T05:26:36;8.50;99.90
59007;DHT22;44792;52.760;6.726;2023-05-18T05:29:03;8.30;99.90
59007;DHT22;44792;52.760;6.726;2023-05-18T05:31:28;8.30;99.90
59007;DHT22;44792;52.760;6.726;2023-05-18T05:33:54;8.40;99.90
59007;DHT22;44792;52.760;6.726;2023-05-18T05:36:20;8.50;99.90
59007;DHT22;44792;52.760;6.726;2023-05-18T05:38:46;8.40;99.90
59007;DHT22;44792;52.760;6.726;2023-05-18T05:41:11;8.50;99.90
59007;DHT22;44792;52.760;6.726;2023-05-18T05:43:37;8.50;99.90
59007;DHT22;44792;52.760;6.726;2023-05-18T05:46:03;8.50;99.90
59007;DHT22;44792;52.760;6.726;2023-05-18T05:48:29;8.50;99.90
59007;DHT22;44792;52.760;6.726;2023-05-18T05:50:55;8.60;99.90
59007;DHT22;44792;52.760;6.726;2023-05-18T05:53:21;8.60;99.90
59007;DHT22;44792;52.760;6.726;2023-05-18T05:55:47;8.60;99.90
59007;DHT22;44792;52.760;6.726;2023-05-18T05:58:13;8.70;99.90
59007;DHT22;44792;52.760;6.726;2023-05-18T06:00:39;8.80;99.90
59007;DHT22;44792;52.760;6.726;2023-05-18T06:03:05;8.80;99.90
59007;DHT22;44792;52.760;6.726;2023-05-18T06:05:30;9.00;99.90
59007;DHT22;44792;52.760;6.726;2023-05-18T06:07:56;9.00;99.90
59007;DHT22;44792;52.760;6.726;2023-05-18T06:10:22;9.00;99.90
59007;DHT22;44792;52.760;6.726;2023-05-18T06:12:47;9.10;99.90
59007;DHT22;44792;52.760;6.726;2023-05-18T06:15:13;9.20;99.90
59007;DHT22;44792;52.760;6.726;2023-05-18T06:17:39;9.20;99.90
59007;DHT22;44792;52.760;6.726;2023-05-18T06:20:06;9.20;99.90
59007;DHT22;44792;52.760;6.726;2023-05-18T06:22:32;9.30;99.90
59007;DHT22;44792;52.760;6.726;2023-05-18T06:24:57;9.30;99.90
59007;DHT22;44792;52.760;6.726;2023-05-18T06:27:23;9.20;99.90
59007;DHT22;44792;52.760;6.726;2023-05-18T06:29:49;9.20;99.90
59007;DHT22;44792;52.760;6.726;2023-05-18T06:32:15;9.20;99.90
59007;DHT22;44792;52.760;6.726;2023-05-18T06:34:41;9.20;99.90
59007;DHT22;44792;52.760;6.726;2023-05-18T06:37:10;9.20;99.90
59007;DHT22;44792;52.760;6.726;2023-05-18T06:39:36;9.20;99.90
59007;DHT22;44792;52.760;6.726;2023-05-18T06:42:02;9.30;99.90
59007;DHT22;44792;52.760;6.726;2023-05-18T06:44:28;9.20;99.90
59007;DHT22;44792;52.760;6.726;2023-05-18T06:46:54;9.30;99.90
59007;DHT22;44792;52.760;6.726;2023-05-18T06:49:19;9.20;99.90
59007;DHT22;44792;52.760;6.726;2023-05-18T06:51:45;9.30;99.90
59007;DHT22;44792;52.760;6.726;2023-05-18T06:54:11;9.20;99.90
59007;DHT22;44792;52.760;6.726;2023-05-18T06:56:37;9.20;99.90
59007;DHT22;44792;52.760;6.726;2023-05-18T06:59:03;9.30;99.90
59007;DHT22;44792;52.760;6.726;2023-05-18T07:01:28;9.30;99.90
59007;DHT22;44792;52.760;6.726;2023-05-18T07:03:54;9.30;99.90
59007;DHT22;44792;52.760;6.726;2023-05-18T07:06:20;9.30;99.90
59007;DHT22;44792;52.760;6.726;2023-05-18T07:08:45;9.30;99.90
59007;DHT22;44792;52.760;6.726;2023-05-18T07:11:12;9.20;99.90
59007;DHT22;44792;52.760;6.726;2023-05-18T07:13:37;9.30;99.90
59007;DHT22;44792;52.760;6.726;2023-05-18T07:16:03;9.40;99.90
59007;DHT22;44792;52.760;6.726;2023-05-18T07:18:29;9.40;99.90
59007;DHT22;44792;52.760;6.726;2023-05-18T07:20:55;9.50;99.90
59007;DHT22;44792;52.760;6.726;2023-05-18T07:23:20;9.30;99.90
59007;DHT22;44792;52.760;6.726;2023-05-18T07:25:46;9.30;99.90
59007;DHT22;44792;52.760;6.726;2023-05-18T07:28:13;9.30;99.90
59007;DHT22;44792;52.760;6.726;2023-05-18T07:30:39;9.30;99.90
59007;DHT22;44792;52.760;6.726;2023-05-18T07:33:05;9.40;99.90
59007;DHT22;44792;52.760;6.726;2023-05-18T07:35:30;9.40;99.90
59007;DHT22;44792;52.760;6.726;2023-05-18T07:37:56;9.50;99.90
59007;DHT22;44792;52.760;6.726;2023-05-18T07:40:22;9.40;99.90
59007;DHT22;44792;52.760;6.726;2023-05-18T07:42:48;9.50;99.90
59007;DHT22;44792;52.760;6.726;2023-05-18T07:45:13;9.50;99.90
59007;DHT22;44792;52.760;6.726;2023-05-18T07:47:39;9.50;99.90
59007;DHT22;44792;52.760;6.726;2023-05-18T07:50:05;9.60;99.90
59007;DHT22;44792;52.760;6.726;2023-05-18T07:52:31;9.70;99.90
59007;DHT22;44792;52.760;6.726;2023-05-18T07:54:57;9.70;99.90
59007;DHT22;44792;52.760;6.726;2023-05-18T07:57:23;9.90;99.90
59007;DHT22;44792;52.760;6.726;2023-05-18T07:59:49;10.00;99.90
59007;DHT22;44792;52.760;6.726;2023-05-18T08:02:15;10.10;99.90
59007;DHT22;44792;52.760;6.726;2023-05-18T08:04:42;10.00;99.90
59007;DHT22;44792;52.760;6.726;2023-05-18T08:07:07;10.10;99.90
59007;DHT22;44792;52.760;6.726;2023-05-18T08:09:35;10.20;99.90
59007;DHT22;44792;52.760;6.726;2023-05-18T08:12:00;10.20;99.90
59007;DHT22;44792;52.760;6.726;2023-05-18T08:14:26;10.20;99.90
59007;DHT22;44792;52.760;6.726;2023-05-18T08:16:52;10.30;99.90
59007;DHT22;44792;52.760;6.726;2023-05-18T08:19:17;10.30;99.90
59007;DHT22;44792;52.760;6.726;2023-05-18T08:21:43;10.30;99.90
59007;DHT22;44792;52.760;6.726;2023-05-18T08:24:10;10.50;99.90
59007;DHT22;44792;52.760;6.726;2023-05-18T08:26:36;10.50;99.90
59007;DHT22;44792;52.760;6.726;2023-05-18T08:29:02;10.50;99.90
59007;DHT22;44792;52.760;6.726;2023-05-18T08:31:38;10.70;99.90
59007;DHT22;44792;52.760;6.726;2023-05-18T08:34:04;10.60;99.90
59007;DHT22;44792;52.760;6.726;2023-05-18T08:36:34;10.50;99.90
59007;DHT22;44792;52.760;6.726;2023-05-18T08:39:00;10.60;99.90
59007;DHT22;44792;52.760;6.726;2023-05-18T08:41:56;10.50;99.90
59007;DHT22;44792;52.760;6.726;2023-05-18T08:44:44;10.60;99.90
59007;DHT22;44792;52.760;6.726;2023-05-18T08:47:11;10.60;99.90
59007;DHT22;44792;52.760;6.726;2023-05-18T08:49:41;10.70;99.90
59007;DHT22;44792;52.760;6.726;2023-05-18T08:52:07;10.70;99.90
59007;DHT22;44792;52.760;6.726;2023-05-18T08:54:35;10.80;99.90
59007;DHT22;44792;52.760;6.726;2023-05-18T08:57:04;10.90;99.90
59007;DHT22;44792;52.760;6.726;2023-05-18T08:59:32;10.90;99.90
59007;DHT22;44792;52.760;6.726;2023-05-18T09:02:01;10.90;99.90
59007;DHT22;44792;52.760;6.726;2023-05-18T09:04:27;10.90;99.90
59007;DHT22;44792;52.760;6.726;2023-05-18T09:06:53;10.90;99.90
59007;DHT22;44792;52.760;6.726;2023-05-18T09:09:21;11.10;99.90
59007;DHT22;44792;52.760;6.726;2023-05-18T09:11:49;11.30;99.90
59007;DHT22;44792;52.760;6.726;2023-05-18T09:14:15;11.40;99.90
59007;DHT22;44792;52.760;6.726;2023-05-18T09:16:41;11.50;99.90
59007;DHT22;44792;52.760;6.726;2023-05-18T09:19:06;11.60;99.90
59007;DHT22;44792;52.760;6.726;2023-05-18T09:21:32;11.50;99.90
59007;DHT22;44792;52.760;6.726;2023-05-18T09:23:59;11.70;99.90
59007;DHT22;44792;52.760;6.726;2023-05-18T09:26:25;11.60;99.90
59007;DHT22;44792;52.760;6.726;2023-05-18T09:28:52;11.70;99.90
59007;DHT22;44792;52.760;6.726;2023-05-18T09:31:20;11.80;99.90
59007;DHT22;44792;52.760;6.726;2023-05-18T09:33:47;11.90;99.90
59007;DHT22;44792;52.760;6.726;2023-05-18T09:36:13;12.10;99.90
59007;DHT22;44792;52.760;6.726;2023-05-18T09:38:43;12.20;99.90
59007;DHT22;44792;52.760;6.726;2023-05-18T09:41:12;12.20;99.90
59007;DHT22;44792;52.760;6.726;2023-05-18T09:43:39;12.00;99.90
59007;DHT22;44792;52.760;6.726;2023-05-18T09:46:06;12.10;99.90
59007;DHT22;44792;52.760;6.726;2023-05-18T09:48:34;12.10;99.90
59007;DHT22;44792;52.760;6.726;2023-05-18T09:51:05;12.10;99.90
59007;DHT22;44792;52.760;6.726;2023-05-18T09:53:34;12.30;99.90
59007;DHT22;44792;52.760;6.726;2023-05-18T09:56:04;12.40;99.90
59007;DHT22;44792;52.760;6.726;2023-05-18T09:58:32;12.50;99.90
59007;DHT22;44792;52.760;6.726;2023-05-18T10:01:00;12.60;99.90
59007;DHT22;44792;52.760;6.726;2023-05-18T10:03:34;12.60;99.90
59007;DHT22;44792;52.760;6.726;2023-05-18T10:06:04;12.60;99.90
59007;DHT22;44792;52.760;6.726;2023-05-18T10:12:10;12.70;99.90
59007;DHT22;44792;52.760;6.726;2023-05-18T10:14:55;12.60;99.90
59007;DHT22;44792;52.760;6.726;2023-05-18T10:17:22;12.70;99.90
59007;DHT22;44792;52.760;6.726;2023-05-18T10:19:51;12.60;99.90
59007;DHT22;44792;52.760;6.726;2023-05-18T10:22:21;12.40;99.90
59007;DHT22;44792;52.760;6.726;2023-05-18T10:24:50;12.70;99.90
59007;DHT22;44792;52.760;6.726;2023-05-18T10:27:26;12.60;99.90
59007;DHT22;44792;52.760;6.726;2023-05-18T10:29:56;12.80;99.90
59007;DHT22;44792;52.760;6.726;2023-05-18T10:32:24;12.70;99.90
59007;DHT22;44792;52.760;6.726;2023-05-18T10:34:55;12.80;99.90
59007;DHT22;44792;52.760;6.726;2023-05-18T10:37:25;12.80;99.90
59007;DHT22;44792;52.760;6.726;2023-05-18T10:39:55;12.80;99.90
59007;DHT22;44792;52.760;6.726;2023-05-18T10:42:24;12.90;99.90
59007;DHT22;44792;52.760;6.726;2023-05-18T10:44:52;13.10;99.90
59007;DHT22;44792;52.760;6.726;2023-05-18T11:14:54;13.30;99.90
59007;DHT22;44792;52.760;6.726;2023-05-18T11:17:23;13.30;99.90
59007;DHT22;44792;52.760;6.726;2023-05-18T11:28:01;13.50;99.90
59007;DHT22;44792;52.760;6.726;2023-05-18T11:30:43;13.60;99.90
59007;DHT22;44792;52.760;6.726;2023-05-18T11:38:19;13.80;99.90
59007;DHT22;44792;52.760;6.726;2023-05-18T11:40:46;13.80;99.90
59007;DHT22;44792;52.760;6.726;2023-05-18T11:43:23;13.90;99.90
59007;DHT22;44792;52.760;6.726;2023-05-18T11:45:56;13.80;99.90
59007;DHT22;44792;52.760;6.726;2023-05-18T11:48:23;13.90;99.90
59007;DHT22;44792;52.760;6.726;2023-05-18T11:50:53;14.10;99.90
59007;DHT22;44792;52.760;6.726;2023-05-18T11:53:22;13.90;99.90
59007;DHT22;44792;52.760;6.726;2023-05-18T11:55:52;14.20;99.90
59007;DHT22;44792;52.760;6.726;2023-05-18T11:58:24;14.20;99.90
59007;DHT22;44792;52.760;6.726;2023-05-18T12:00:50;14.20;99.90
59007;DHT22;44792;52.760;6.726;2023-05-18T12:03:22;14.30;99.90
59007;DHT22;44792;52.760;6.726;2023-05-18T12:05:50;14.50;99.90
59007;DHT22;44792;52.760;6.726;2023-05-18T12:08:17;14.50;99.90
59007;DHT22;44792;52.760;6.726;2023-05-18T12:10:48;14.50;99.90
59007;DHT22;44792;52.760;6.726;2023-05-18T12:13:15;14.50;99.90
59007;DHT22;44792;52.760;6.726;2023-05-18T12:15:42;14.50;99.90
59007;DHT22;44792;52.760;6.726;2023-05-18T12:18:09;14.40;99.90
59007;DHT22;44792;52.760;6.726;2023-05-18T12:20:38;14.40;99.90
59007;DHT22;44792;52.760;6.726;2023-05-18T12:23:04;14.40;99.90
59007;DHT22;44792;52.760;6.726;2023-05-18T12:25:30;14.40;99.90
59007;DHT22;44792;52.760;6.726;2023-05-18T12:27:56;14.40;99.90
59007;DHT22;44792;52.760;6.726;2023-05-18T12:30:26;14.50;99.90
59007;DHT22;44792;52.760;6.726;2023-05-18T12:33:02;14.50;99.90
59007;DHT22;44792;52.760;6.726;2023-05-18T12:35:29;14.50;99.90
59007;DHT22;44792;52.760;6.726;2023-05-18T12:37:56;14.70;99.90
59007;DHT22;44792;52.760;6.726;2023-05-18T12:40:24;14.50;99.90
59007;DHT22;44792;52.760;6.726;2023-05-18T12:45:29;14.50;99.90
59007;DHT22;44792;52.760;6.726;2023-05-18T12:48:02;14.60;99.90
59007;DHT22;44792;52.760;6.726;2023-05-18T12:50:28;14.60;99.90
59007;DHT22;44792;52.760;6.726;2023-05-18T12:52:54;14.60;99.90
59007;DHT22;44792;52.760;6.726;2023-05-18T12:55:21;14.60;99.90
59007;DHT22;44792;52.760;6.726;2023-05-18T12:58:12;14.70;99.90
59007;DHT22;44792;52.760;6.726;2023-05-18T13:00:44;14.80;99.90
59007;DHT22;44792;52.760;6.726;2023-05-18T13:03:17;14.70;99.90
59007;DHT22;44792;52.760;6.726;2023-05-18T13:05:45;14.70;99.90
59007;DHT22;44792;52.760;6.726;2023-05-18T13:08:30;14.80;99.90
59007;DHT22;44792;52.760;6.726;2023-05-18T13:11:04;14.80;99.90
59007;DHT22;44792;52.760;6.726;2023-05-18T13:13:30;14.90;99.90
59007;DHT22;44792;52.760;6.726;2023-05-18T13:15:56;15.00;99.90
59007;DHT22;44792;52.760;6.726;2023-05-18T13:18:25;15.00;99.90
59007;DHT22;44792;52.760;6.726;2023-05-18T13:20:53;15.00;99.90
59007;DHT22;44792;52.760;6.726;2023-05-18T13:23:23;15.00;99.90
59007;DHT22;44792;52.760;6.726;2023-05-18T13:25:50;15.10;99.90
59007;DHT22;44792;52.760;6.726;2023-05-18T13:28:19;15.20;99.90
59007;DHT22;44792;52.760;6.726;2023-05-18T13:30:46;15.10;99.90
59007;DHT22;44792;52.760;6.726;2023-05-18T13:33:13;15.10;99.80
59007;DHT22;44792;52.760;6.726;2023-05-18T13:35:42;15.10;99.50
59007;DHT22;44792;52.760;6.726;2023-05-18T13:38:09;15.20;99.90
59007;DHT22;44792;52.760;6.726;2023-05-18T13:40:35;15.20;99.30
59007;DHT22;44792;52.760;6.726;2023-05-18T13:43:01;15.10;99.20
59007;DHT22;44792;52.760;6.726;2023-05-18T13:45:26;15.20;99.00
59007;DHT22;44792;52.760;6.726;2023-05-18T13:47:52;15.10;99.20
59007;DHT22;44792;52.760;6.726;2023-05-18T13:50:19;15.10;99.10
59007;DHT22;44792;52.760;6.726;2023-05-18T13:52:46;15.30;99.50
59007;DHT22;44792;52.760;6.726;2023-05-18T13:55:12;15.40;99.70
59007;DHT22;44792;52.760;6.726;2023-05-18T13:57:38;15.30;99.40
59007;DHT22;44792;52.760;6.726;2023-05-18T14:00:05;15.30;99.80
59007;DHT22;44792;52.760;6.726;2023-05-18T14:02:36;15.40;99.60
59007;DHT22;44792;52.760;6.726;2023-05-18T14:05:02;15.40;99.60
59007;DHT22;44792;52.760;6.726;2023-05-18T14:07:29;15.30;99.30
59007;DHT22;44792;52.760;6.726;2023-05-18T14:09:55;15.30;99.70
59007;DHT22;44792;52.760;6.726;2023-05-18T14:12:20;15.40;99.60
59007;DHT22;44792;52.760;6.726;2023-05-18T14:14:46;15.50;99.00
59007;DHT22;44792;52.760;6.726;2023-05-18T14:17:12;15.50;98.90
59007;DHT22;44792;52.760;6.726;2023-05-18T14:19:38;15.50;98.20
59007;DHT22;44792;52.760;6.726;2023-05-18T14:22:04;15.40;98.70
59007;DHT22;44792;52.760;6.726;2023-05-18T14:24:30;15.40;98.70
59007;DHT22;44792;52.760;6.726;2023-05-18T14:26:56;15.40;98.70
59007;DHT22;44792;52.760;6.726;2023-05-18T14:29:22;15.50;98.90
59007;DHT22;44792;52.760;6.726;2023-05-18T14:31:48;15.40;98.70
59007;DHT22;44792;52.760;6.726;2023-05-18T14:34:13;15.50;99.30
59007;DHT22;44792;52.760;6.726;2023-05-18T14:36:39;15.60;99.10
59007;DHT22;44792;52.760;6.726;2023-05-18T14:39:05;15.60;98.60
59007;DHT22;44792;52.760;6.726;2023-05-18T14:41:31;15.60;98.70
59007;DHT22;44792;52.760;6.726;2023-05-18T14:43:56;15.60;98.30
59007;DHT22;44792;52.760;6.726;2023-05-18T14:46:22;15.60;99.20
59007;DHT22;44792;52.760;6.726;2023-05-18T14:48:48;15.70;99.50
59007;DHT22;44792;52.760;6.726;2023-05-18T14:51:13;15.70;99.30
59007;DHT22;44792;52.760;6.726;2023-05-18T14:53:40;15.70;99.00
59007;DHT22;44792;52.760;6.726;2023-05-18T14:56:06;15.70;99.00
59007;DHT22;44792;52.760;6.726;2023-05-18T14:58:34;15.80;99.30
59007;DHT22;44792;52.760;6.726;2023-05-18T15:01:00;15.80;99.20
59007;DHT22;44792;52.760;6.726;2023-05-18T15:03:26;15.70;99.30
59007;DHT22;44792;52.760;6.726;2023-05-18T15:05:52;15.80;99.50
59007;DHT22;44792;52.760;6.726;2023-05-18T15:08:17;15.80;98.40
59007;DHT22;44792;52.760;6.726;2023-05-18T15:10:46;15.70;98.10
59007;DHT22;44792;52.760;6.726;2023-05-18T15:13:14;15.70;98.60
59007;DHT22;44792;52.760;6.726;2023-05-18T15:15:43;15.70;98.30
59007;DHT22;44792;52.760;6.726;2023-05-18T15:18:09;15.70;98.30
59007;DHT22;44792;52.760;6.726;2023-05-18T15:20:39;15.70;98.60
59007;DHT22;44792;52.760;6.726;2023-05-18T15:23:11;15.70;98.70
59007;DHT22;44792;52.760;6.726;2023-05-18T15:25:37;15.70;98.10
59007;DHT22;44792;52.760;6.726;2023-05-18T15:28:03;15.70;98.20
59007;DHT22;44792;52.760;6.726;2023-05-18T15:30:29;15.70;98.60
59007;DHT22;44792;52.760;6.726;2023-05-18T15:32:55;15.80;99.20
59007;DHT22;44792;52.760;6.726;2023-05-18T15:35:21;15.70;98.10
59007;DHT22;44792;52.760;6.726;2023-05-18T15:37:47;15.70;98.10
59007;DHT22;44792;52.760;6.726;2023-05-18T15:40:15;15.70;99.00
59007;DHT22;44792;52.760;6.726;2023-05-18T15:42:41;15.80;98.50
59007;DHT22;44792;52.760;6.726;2023-05-18T15:45:08;15.80;99.10
59007;DHT22;44792;52.760;6.726;2023-05-18T15:47:34;15.90;99.10
59007;DHT22;44792;52.760;6.726;2023-05-18T15:50:00;15.80;98.90
59007;DHT22;44792;52.760;6.726;2023-05-18T15:52:25;15.80;99.60
59007;DHT22;44792;52.760;6.726;2023-05-18T15:54:51;15.70;99.50
59007;DHT22;44792;52.760;6.726;2023-05-18T15:57:17;15.80;98.60
59007;DHT22;44792;52.760;6.726;2023-05-18T15:59:42;15.70;99.00
59007;DHT22;44792;52.760;6.726;2023-05-18T16:02:08;15.80;99.30
59007;DHT22;44792;52.760;6.726;2023-05-18T16:04:34;15.70;99.50
59007;DHT22;44792;52.760;6.726;2023-05-18T16:07:00;15.70;99.90
59007;DHT22;44792;52.760;6.726;2023-05-18T16:09:28;15.70;99.90
59007;DHT22;44792;52.760;6.726;2023-05-18T16:11:53;15.80;99.90
59007;DHT22;44792;52.760;6.726;2023-05-18T16:14:19;15.70;99.90
59007;DHT22;44792;52.760;6.726;2023-05-18T16:16:45;15.70;99.90
59007;DHT22;44792;52.760;6.726;2023-05-18T16:19:11;15.70;99.90
59007;DHT22;44792;52.760;6.726;2023-05-18T16:21:36;15.60;99.90
59007;DHT22;44792;52.760;6.726;2023-05-18T16:24:04;15.60;99.90
59007;DHT22;44792;52.760;6.726;2023-05-18T16:26:34;15.50;99.90
59007;DHT22;44792;52.760;6.726;2023-05-18T16:29:00;15.50;99.90
59007;DHT22;44792;52.760;6.726;2023-05-18T16:31:28;15.50;99.90